Time;durP1;ratioP1;P1;durP2;ratioP2;P2;SDS_P1;SDS_P2;PMS_P1;PMS_P2;Temp;Humidity;BMP_temperature;BMP_pressure;BME280_temperature;BME280_humidity;BME280_pressure;Samples;Min_cycle;Max_cycle;Signal;HPM_P1;HPM_P2
2021/11/03 05:02:24;;;;;;;7.57;6.40;;;7.30;99.90;;;;;;5121332;23;20481;-70
2021/11/03 05:04:51;;;;;;;8.43;5.93;;;7.30;99.90;;;;;;4996237;28;20461;-70
2021/11/03 05:07:18;;;;;;;7.33;6.10;;;7.30;99.90;;;;;;4996341;28;20504;-70
2021/11/03 05:09:45;;;;;;;7.30;6.03;;;7.30;99.90;;;;;;4996278;28;20545;-69
2021/11/03 05:12:11;;;;;;;5.70;5.20;;;7.20;99.90;;;;;;4996102;28;20486;-69
2021/11/03 05:14:38;;;;;;;6.50;5.90;;;7.30;99.90;;;;;;4996087;28;20454;-69
2021/11/03 05:17:06;;;;;;;6.80;5.30;;;7.30;99.90;;;;;;4998525;28;20493;-70
2021/11/03 05:19:34;;;;;;;7.10;6.40;;;7.30;99.90;;;;;;5006373;28;20453;-70
2021/11/03 05:22:04;;;;;;;6.77;6.17;;;7.30;99.90;;;;;;5003023;28;20478;-70
2021/11/03 05:24:31;;;;;;;5.97;5.37;;;7.40;99.90;;;;;;5001311;28;20453;-69
2021/11/03 05:26:58;;;;;;;5.30;4.90;;;7.40;99.90;;;;;;4998666;28;20450;-69
2021/11/03 05:29:24;;;;;;;7.00;5.60;;;7.40;99.90;;;;;;4999055;28;20458;-69
2021/11/03 05:31:51;;;;;;;8.10;5.10;;;7.40;99.90;;;;;;4998493;28;20493;-70
2021/11/03 05:34:18;;;;;;;5.83;5.33;;;7.40;99.90;;;;;;4997663;28;20944;-69
2021/11/03 05:36:47;;;;;;;5.93;5.30;;;7.50;99.90;;;;;;4997948;28;20463;-69
2021/11/03 05:39:16;;;;;;;5.07;4.60;;;7.50;99.90;;;;;;4997874;28;20453;-69
2021/11/03 05:41:43;;;;;;;5.00;4.53;;;7.50;99.90;;;;;;4997128;28;20485;-70
2021/11/03 05:44:13;;;;;;;5.20;4.70;;;7.50;99.90;;;;;;4995819;28;20451;-70
2021/11/03 05:46:43;;;;;;;4.90;4.37;;;7.50;99.90;;;;;;4995512;28;20443;-70
2021/11/03 05:49:13;;;;;;;5.33;4.77;;;7.60;99.90;;;;;;4995459;28;20446;-69
2021/11/03 05:51:43;;;;;;;5.13;4.33;;;7.60;99.90;;;;;;4994758;28;21008;-69
2021/11/03 05:54:11;;;;;;;4.73;4.43;;;7.60;99.90;;;;;;4995090;28;20956;-69
2021/11/03 05:56:38;;;;;;;4.90;4.50;;;7.60;99.90;;;;;;4995646;28;20938;-69
2021/11/03 05:59:06;;;;;;;4.87;4.50;;;7.60;99.90;;;;;;4995936;28;20445;-70
2021/11/03 06:01:33;;;;;;;4.87;4.20;;;7.60;99.90;;;;;;4995248;28;20638;-70
2021/11/03 06:03:59;;;;;;;4.77;4.37;;;7.60;99.90;;;;;;4995911;28;20451;-70
2021/11/03 06:06:26;;;;;;;5.17;4.67;;;7.50;99.90;;;;;;4996101;28;20450;-70
2021/11/03 06:08:54;;;;;;;6.00;5.50;;;7.60;99.90;;;;;;4995841;28;20454;-69
2021/11/03 06:11:29;;;;;;;5.30;4.83;;;7.60;99.90;;;;;;4995651;28;20474;-67
2021/11/03 06:13:56;;;;;;;5.03;4.53;;;7.70;99.90;;;;;;4994420;28;20466;-67
2021/11/03 06:16:23;;;;;;;5.03;4.20;;;8.10;99.90;;;;;;4994700;28;20462;-68
2021/11/03 06:18:51;;;;;;;4.67;4.27;;;8.20;99.90;;;;;;4994684;28;20549;-68
2021/11/03 06:21:18;;;;;;;5.00;3.90;;;8.30;99.90;;;;;;4994259;28;21056;-68
2021/11/03 06:23:44;;;;;;;3.77;3.47;;;8.30;99.90;;;;;;4994604;28;20478;-68
2021/11/03 06:26:13;;;;;;;3.73;3.50;;;8.30;99.90;;;;;;4994504;28;20457;-68
2021/11/03 06:28:41;;;;;;;4.00;3.70;;;8.30;99.90;;;;;;4994482;28;20454;-68
2021/11/03 06:31:08;;;;;;;4.10;3.70;;;8.10;99.90;;;;;;4994250;28;20482;-68
2021/11/03 06:33:36;;;;;;;4.77;4.07;;;8.00;99.90;;;;;;4994428;28;20483;-68
2021/11/03 06:36:06;;;;;;;4.43;4.03;;;8.00;99.90;;;;;;4994556;28;20455;-68
2021/11/03 06:38:33;;;;;;;4.00;3.70;;;8.00;99.90;;;;;;4994025;28;20497;-68
2021/11/03 06:41:02;;;;;;;5.20;3.93;;;8.00;99.90;;;;;;4994243;28;20477;-68
2021/11/03 06:43:29;;;;;;;4.40;3.07;;;8.00;99.90;;;;;;4994378;28;20451;-68
2021/11/03 06:45:57;;;;;;;3.00;2.70;;;8.00;99.90;;;;;;4994073;28;20969;-68
2021/11/03 06:48:24;;;;;;;3.07;2.87;;;8.00;99.90;;;;;;4994374;28;20491;-68
2021/11/03 06:50:52;;;;;;;4.37;3.03;;;8.00;99.90;;;;;;4994162;28;20490;-68
2021/11/03 06:53:22;;;;;;;3.30;2.93;;;7.90;99.90;;;;;;4993891;28;20500;-68
2021/11/03 06:55:49;;;;;;;3.47;2.50;;;7.90;99.90;;;;;;4994233;28;20461;-68
2021/11/03 06:58:17;;;;;;;4.23;2.70;;;7.90;99.90;;;;;;4994243;28;20812;-68
2021/11/03 07:00:46;;;;;;;2.80;2.50;;;7.90;99.90;;;;;;4994028;28;20485;-68
2021/11/03 07:03:15;;;;;;;2.60;2.40;;;7.90;99.90;;;;;;4993937;28;20458;-68
2021/11/03 07:05:45;;;;;;;2.63;2.43;;;8.00;99.90;;;;;;4993793;28;20462;-68
2021/11/03 07:08:12;;;;;;;2.40;2.20;;;8.00;99.90;;;;;;4994129;28;20822;-68
2021/11/03 07:10:42;;;;;;;4.60;2.50;;;7.90;99.90;;;;;;4993877;28;21014;-68
2021/11/03 07:13:09;;;;;;;3.80;2.27;;;7.90;99.90;;;;;;4993585;28;21020;-68
2021/11/03 07:15:37;;;;;;;2.70;2.50;;;7.90;99.90;;;;;;4993742;28;20458;-68
2021/11/03 07:18:04;;;;;;;2.20;2.10;;;8.00;99.90;;;;;;4993795;28;20825;-68
2021/11/03 07:20:33;;;;;;;2.30;2.20;;;8.00;99.90;;;;;;4993978;28;20847;-68
2021/11/03 07:22:59;;;;;;;3.33;2.17;;;8.00;99.90;;;;;;4994182;28;20438;-68
2021/11/03 07:25:27;;;;;;;2.20;1.97;;;8.10;99.90;;;;;;4994693;28;20442;-68
2021/11/03 07:27:55;;;;;;;2.00;1.80;;;8.20;99.90;;;;;;4997883;28;20858;-68
2021/11/03 07:30:26;;;;;;;1.90;1.87;;;8.30;99.90;;;;;;4997546;28;20927;-68
2021/11/03 07:32:53;;;;;;;2.63;2.23;;;8.30;99.90;;;;;;4997596;28;20850;-68
2021/11/03 07:35:19;;;;;;;5.33;2.40;;;8.40;99.90;;;;;;4997256;28;20453;-68
2021/11/03 07:37:47;;;;;;;2.40;2.20;;;8.40;99.90;;;;;;4997621;28;20458;-68
2021/11/03 07:40:18;;;;;;;2.47;2.27;;;8.40;99.90;;;;;;4997503;28;20460;-68
2021/11/03 07:42:45;;;;;;;2.13;1.93;;;8.50;99.90;;;;;;4997585;28;20438;-68
2021/11/03 07:45:13;;;;;;;2.20;2.10;;;8.40;99.90;;;;;;4997227;28;20454;-68
2021/11/03 07:47:40;;;;;;;1.80;1.70;;;8.40;99.90;;;;;;4997416;28;20458;-68
2021/11/03 07:50:12;;;;;;;1.67;1.67;;;8.40;99.90;;;;;;4996987;28;20964;-68
2021/11/03 07:52:39;;;;;;;1.93;1.83;;;8.40;99.90;;;;;;4997195;28;20513;-68
2021/11/03 07:55:08;;;;;;;1.37;1.27;;;8.40;99.90;;;;;;4997451;28;20455;-68
2021/11/03 07:57:35;;;;;;;2.10;1.60;;;8.40;99.90;;;;;;4997446;28;20458;-68
2021/11/03 08:00:02;;;;;;;1.60;1.50;;;8.50;99.90;;;;;;4997426;28;20465;-68
2021/11/03 08:02:28;;;;;;;1.57;1.50;;;8.60;99.90;;;;;;4996694;28;20496;-68
2021/11/03 08:04:55;;;;;;;2.23;1.67;;;8.70;99.90;;;;;;4997036;28;20528;-68
2021/11/03 08:07:22;;;;;;;1.63;1.53;;;8.80;99.90;;;;;;4997198;28;20459;-68
2021/11/03 08:09:48;;;;;;;1.57;1.37;;;8.80;99.90;;;;;;4996877;28;20457;-67
2021/11/03 08:12:19;;;;;;;1.63;1.30;;;8.90;99.90;;;;;;4996872;28;20485;-68
2021/11/03 08:14:46;;;;;;;1.87;1.47;;;9.10;99.90;;;;;;4996897;28;20467;-68
2021/11/03 08:17:16;;;;;;;2.00;1.17;;;9.30;99.90;;;;;;4996786;28;20462;-68
2021/11/03 08:19:48;;;;;;;1.10;1.10;;;9.40;99.90;;;;;;4996494;28;20941;-68
2021/11/03 08:22:20;;;;;;;1.20;1.20;;;9.50;99.90;;;;;;4996613;28;20481;-68
2021/11/03 08:24:48;;;;;;;1.37;1.37;;;9.50;99.90;;;;;;4996657;28;20878;-68
2021/11/03 08:27:17;;;;;;;1.27;1.20;;;9.50;99.90;;;;;;4996705;28;20516;-68
2021/11/03 08:29:44;;;;;;;1.30;1.30;;;9.60;99.90;;;;;;4996214;28;20458;-68
2021/11/03 08:32:14;;;;;;;1.13;1.13;;;9.60;99.90;;;;;;4996691;28;20474;-68
2021/11/03 08:34:41;;;;;;;1.30;1.20;;;9.70;99.90;;;;;;4997076;28;20485;-68
2021/11/03 08:37:10;;;;;;;3.00;1.60;;;9.70;99.90;;;;;;4995580;28;20942;-68
2021/11/03 08:39:40;;;;;;;1.30;1.30;;;9.80;99.90;;;;;;4996458;28;20462;-68
2021/11/03 08:42:08;;;;;;;1.30;1.20;;;9.90;99.90;;;;;;4996339;28;20486;-68
2021/11/03 08:44:37;;;;;;;1.10;1.10;;;9.90;99.90;;;;;;4996251;28;20461;-68
2021/11/03 08:47:04;;;;;;;1.63;1.40;;;10.00;99.90;;;;;;4996242;28;20877;-68
2021/11/03 08:49:31;;;;;;;1.30;1.30;;;10.00;99.90;;;;;;4996156;28;20458;-68
2021/11/03 08:51:59;;;;;;;1.67;1.57;;;10.10;99.90;;;;;;4996194;28;20474;-68
2021/11/03 08:54:25;;;;;;;1.57;1.50;;;10.10;99.90;;;;;;4996109;28;20474;-68
2021/11/03 08:56:52;;;;;;;1.60;1.50;;;10.20;99.90;;;;;;4996024;28;20823;-68
2021/11/03 08:59:19;;;;;;;2.20;2.00;;;10.30;99.90;;;;;;4996129;28;20465;-70
2021/11/03 09:01:47;;;;;;;1.70;1.60;;;10.40;99.90;;;;;;4995698;28;20482;-68
2021/11/03 09:04:14;;;;;;;1.80;1.73;;;10.50;99.90;;;;;;4995970;28;20450;-68
2021/11/03 09:06:40;;;;;;;2.50;1.50;;;10.50;99.90;;;;;;4995877;28;20462;-68
2021/11/03 09:09:08;;;;;;;3.20;1.50;;;10.50;99.90;;;;;;4995836;28;20455;-68
2021/11/03 09:11:35;;;;;;;3.47;1.10;;;10.50;99.90;;;;;;4995593;28;20478;-68
2021/11/03 09:14:02;;;;;;;1.57;1.47;;;10.40;99.90;;;;;;4995546;28;20489;-68
2021/11/03 09:16:30;;;;;;;1.30;1.20;;;10.40;99.90;;;;;;4995525;28;20827;-68
2021/11/03 09:18:58;;;;;;;1.17;1.17;;;10.50;99.90;;;;;;4995481;28;20459;-68
2021/11/03 09:21:25;;;;;;;1.10;1.10;;;10.50;99.90;;;;;;4995660;28;20482;-68
2021/11/03 09:23:52;;;;;;;1.17;1.17;;;10.50;99.90;;;;;;4995331;28;20853;-68
2021/11/03 09:26:22;;;;;;;1.60;1.40;;;10.60;99.90;;;;;;4995471;28;20454;-68
2021/11/03 09:28:51;;;;;;;2.13;1.47;;;10.80;99.90;;;;;;4995537;28;20459;-68
2021/11/03 09:31:18;;;;;;;2.90;1.50;;;11.00;99.90;;;;;;4995184;28;20475;-68
2021/11/03 09:33:45;;;;;;;1.97;1.60;;;11.20;99.90;;;;;;4995403;28;20474;-68
2021/11/03 09:36:17;;;;;;;2.10;1.80;;;11.40;99.90;;;;;;4995266;28;20935;-68
2021/11/03 09:38:44;;;;;;;3.63;0.93;;;11.70;99.90;;;;;;4995618;28;20457;-68
2021/11/03 09:41:20;;;;;;;1.20;1.20;;;11.90;99.90;;;;;;4995747;28;20530;-68
2021/11/03 09:43:51;;;;;;;1.73;1.33;;;12.10;99.90;;;;;;5002821;28;20460;-68
2021/11/03 09:46:21;;;;;;;2.27;1.93;;;12.10;99.90;;;;;;4995489;28;20450;-68
2021/11/03 09:48:53;;;;;;;3.00;1.50;;;12.10;99.90;;;;;;4994543;28;20804;-68
2021/11/03 09:51:24;;;;;;;3.23;1.27;;;12.10;99.90;;;;;;4994632;28;20478;-68
2021/11/03 09:53:53;;;;;;;1.50;1.17;;;12.20;99.90;;;;;;4995435;28;20489;-68
2021/11/03 09:56:22;;;;;;;2.37;1.30;;;12.20;99.90;;;;;;4994634;28;20529;-68
2021/11/03 09:59:03;;;;;;;1.80;1.23;;;12.10;99.90;;;;;;4994739;28;20462;-68
2021/11/03 10:01:44;;;;;;;1.40;1.30;;;12.00;99.90;;;;;;4994447;28;20483;-68
2021/11/03 10:04:45;;;;;;;1.27;1.20;;;11.90;99.90;;;;;;4994774;28;20440;-68
2021/11/03 10:07:26;;;;;;;1.30;1.30;;;11.90;99.90;;;;;;4991036;28;20453;-68
2021/11/03 10:09:53;;;;;;;2.07;1.27;;;11.90;99.90;;;;;;4994558;28;20449;-68
2021/11/03 10:12:20;;;;;;;1.13;1.10;;;11.80;99.90;;;;;;4994534;28;20479;-68
2021/11/03 10:14:47;;;;;;;2.00;1.30;;;11.70;99.90;;;;;;4994469;28;20574;-68
2021/11/03 10:17:21;;;;;;;3.47;1.30;;;11.70;99.90;;;;;;4994153;28;20458;-68
2021/11/03 10:19:48;;;;;;;1.20;1.10;;;11.80;99.90;;;;;;4994605;28;20477;-69
2021/11/03 10:22:36;;;;;;;1.00;1.00;;;11.80;99.90;;;;;;4994260;28;20482;-68
2021/11/03 10:25:19;;;;;;;1.73;1.20;;;11.90;99.90;;;;;;4994297;28;20445;-68
2021/11/03 10:27:51;;;;;;;1.10;1.00;;;11.90;99.90;;;;;;4994141;28;20439;-68
2021/11/03 10:30:35;;;;;;;1.23;0.90;;;12.00;99.90;;;;;;4994164;28;20444;-68
2021/11/03 10:33:12;;;;;;;1.30;1.30;;;12.00;99.90;;;;;;4993860;28;20941;-68
2021/11/03 10:35:42;;;;;;;1.70;1.60;;;12.00;99.90;;;;;;4994040;28;20449;-68
2021/11/03 10:38:14;;;;;;;2.20;1.27;;;11.90;99.90;;;;;;4994020;28;20454;-68
2021/11/03 10:40:47;;;;;;;1.40;1.33;;;11.90;99.90;;;;;;4994136;28;20536;-68
2021/11/03 10:43:28;;;;;;;1.67;1.47;;;11.90;99.90;;;;;;4993994;28;20775;-68
2021/11/03 10:46:03;;;;;;;6.50;1.33;;;11.90;99.90;;;;;;4993738;28;20530;-68
2021/11/03 10:48:31;;;;;;;1.50;1.40;;;11.90;99.90;;;;;;4994700;28;20433;-68
2021/11/03 10:51:13;;;;;;;2.07;1.53;;;12.00;99.90;;;;;;4993864;28;20475;-68
2021/11/03 10:53:54;;;;;;;1.30;1.20;;;12.10;99.90;;;;;;4994014;28;20463;-68
2021/11/03 10:56:27;;;;;;;1.90;1.47;;;12.20;99.90;;;;;;4993655;28;20439;-68
2021/11/03 10:58:58;;;;;;;1.23;1.10;;;12.30;99.90;;;;;;4993714;28;20442;-68
2021/11/03 11:01:32;;;;;;;1.17;1.10;;;12.30;99.90;;;;;;4997495;28;20545;-68
2021/11/03 11:04:04;;;;;;;1.33;1.23;;;12.40;99.90;;;;;;4997940;28;20434;-68
2021/11/03 11:06:37;;;;;;;1.20;1.20;;;12.50;99.90;;;;;;4997786;28;20930;-68
2021/11/03 11:09:21;;;;;;;2.63;1.63;;;12.50;99.90;;;;;;4997851;28;20462;-68
2021/11/03 11:11:56;;;;;;;1.80;1.53;;;12.60;99.90;;;;;;4997996;28;20481;-68
2021/11/03 11:14:24;;;;;;;2.73;1.83;;;12.60;99.90;;;;;;4997244;28;20482;-68
2021/11/03 11:16:58;;;;;;;1.20;1.10;;;12.50;99.90;;;;;;4997942;28;20466;-69
2021/11/03 11:19:35;;;;;;;1.00;1.00;;;12.50;99.90;;;;;;4997499;28;20446;-67
2021/11/03 11:22:06;;;;;;;1.30;1.30;;;12.50;99.90;;;;;;4997774;28;20479;-68
2021/11/03 11:24:40;;;;;;;2.40;2.20;;;12.50;99.90;;;;;;4997515;28;20511;-69
2021/11/03 11:27:22;;;;;;;3.57;3.27;;;12.60;99.90;;;;;;4997441;28;20445;-68
2021/11/03 11:30:02;;;;;;;4.43;4.13;;;12.60;99.90;;;;;;4997463;28;20447;-68
2021/11/03 11:32:40;;;;;;;4.27;3.87;;;12.70;99.90;;;;;;4997392;28;20476;-68
2021/11/03 11:35:18;;;;;;;4.30;4.00;;;12.70;99.90;;;;;;4997541;28;20466;-68
2021/11/03 11:37:53;;;;;;;5.17;4.40;;;12.60;99.90;;;;;;4997409;28;20444;-68
2021/11/03 11:40:35;;;;;;;5.37;4.87;;;12.60;99.90;;;;;;4997223;28;20917;-69
2021/11/03 11:43:08;;;;;;;7.83;4.97;;;12.50;99.90;;;;;;4997441;28;20496;-68
2021/11/03 11:45:37;;;;;;;4.63;4.33;;;12.40;99.90;;;;;;4997527;28;20461;-68
2021/11/03 11:48:07;;;;;;;6.27;4.30;;;12.40;99.90;;;;;;4997415;28;20482;-68
2021/11/03 11:50:40;;;;;;;5.33;3.90;;;12.40;99.90;;;;;;4997259;28;20484;-69
2021/11/03 11:53:24;;;;;;;4.37;3.97;;;12.30;99.90;;;;;;4997159;28;20919;-68
2021/11/03 11:56:20;;;;;;;5.93;4.10;;;12.40;99.90;;;;;;4996729;28;20585;-68
2021/11/03 11:58:50;;;;;;;7.37;3.33;;;12.40;99.90;;;;;;4996823;28;20538;-68
2021/11/03 12:01:21;;;;;;;3.47;3.27;;;12.40;99.90;;;;;;4996493;28;20510;-69
2021/11/03 12:04:20;;;;;;;4.10;3.40;;;12.30;99.90;;;;;;4996800;28;20450;-68
2021/11/03 12:07:06;;;;;;;3.30;3.10;;;12.20;99.90;;;;;;4972815;28;20454;-69
2021/11/03 12:09:35;;;;;;;3.83;3.30;;;12.10;99.90;;;;;;4996837;28;20462;-68
2021/11/03 12:12:21;;;;;;;2.80;2.60;;;12.10;99.90;;;;;;4995594;28;20866;-69
2021/11/03 12:14:52;;;;;;;3.43;3.13;;;12.00;99.90;;;;;;4996511;28;20500;-68
2021/11/03 12:17:58;;;;;;;11.03;3.10;;;11.90;99.90;;;;;;4996748;28;20860;-69
2021/11/03 12:20:45;;;;;;;4.30;3.90;;;11.90;99.90;;;;;;4996673;28;20434;-68
2021/11/03 12:23:44;;;;;;;4.70;4.37;;;11.90;99.90;;;;;;4996612;28;20435;-68
2021/11/03 12:26:34;;;;;;;4.80;3.20;;;11.80;99.90;;;;;;4996588;28;20483;-69
2021/11/03 12:29:24;;;;;;;4.20;3.67;;;11.80;99.90;;;;;;4996414;28;20450;-68
2021/11/03 12:31:58;;;;;;;3.57;3.27;;;11.80;99.90;;;;;;4995975;28;20483;-68
2021/11/03 12:34:32;;;;;;;4.00;3.63;;;11.90;99.90;;;;;;4996410;28;20468;-68
2021/11/03 12:37:32;;;;;;;3.40;3.10;;;11.90;99.90;;;;;;4996027;28;21130;-68
2021/11/03 12:40:24;;;;;;;5.13;3.13;;;11.90;99.90;;;;;;4993678;28;20938;-68
2021/11/03 12:42:58;;;;;;;3.03;2.70;;;11.90;99.90;;;;;;4996047;28;20451;-68
2021/11/03 12:45:35;;;;;;;4.20;2.93;;;12.00;99.90;;;;;;4996139;28;20518;-68
2021/11/03 12:48:03;;;;;;;4.73;3.10;;;12.00;99.90;;;;;;4996066;28;20474;-68
2021/11/03 12:50:34;;;;;;;2.43;2.27;;;12.00;99.90;;;;;;4995739;28;20455;-69
2021/11/03 12:53:11;;;;;;;3.47;3.27;;;12.00;99.90;;;;;;4995871;28;20928;-68
2021/11/03 12:55:46;;;;;;;3.40;2.93;;;12.10;99.90;;;;;;4995725;28;20462;-68
2021/11/03 12:58:32;;;;;;;4.93;2.90;;;12.10;99.90;;;;;;4996002;28;20444;-68
2021/11/03 13:01:04;;;;;;;5.73;4.00;;;12.00;99.90;;;;;;4995487;28;20486;-68
2021/11/03 13:03:33;;;;;;;9.00;6.03;;;12.00;99.90;;;;;;4995744;28;20443;-69
2021/11/03 13:06:01;;;;;;;6.33;5.37;;;11.90;99.90;;;;;;4995776;28;20454;-68
2021/11/03 13:08:31;;;;;;;9.70;8.47;;;11.90;99.90;;;;;;4995437;28;20464;-69
2021/11/03 13:11:04;;;;;;;5.60;5.07;;;11.90;99.90;;;;;;4995483;28;20478;-68
2021/11/03 13:13:32;;;;;;;3.80;3.50;;;12.00;99.90;;;;;;4995491;28;20451;-68
2021/11/03 13:16:06;;;;;;;4.90;3.27;;;11.90;99.90;;;;;;4995677;28;20478;-68
2021/11/03 13:18:38;;;;;;;3.13;2.87;;;11.90;99.90;;;;;;4996303;28;20496;-68
2021/11/03 13:21:09;;;;;;;3.43;3.23;;;11.80;99.90;;;;;;4995312;28;20471;-68
2021/11/03 13:23:37;;;;;;;6.23;3.57;;;11.80;99.90;;;;;;4995106;28;20479;-68
2021/11/03 13:26:08;;;;;;;7.33;4.23;;;11.60;99.90;;;;;;4994944;28;20458;-69
2021/11/03 13:28:37;;;;;;;4.63;3.80;;;11.60;99.90;;;;;;4995307;28;20435;-68
2021/11/03 13:31:08;;;;;;;5.27;4.40;;;11.50;99.90;;;;;;4994933;28;20828;-68
2021/11/03 13:33:37;;;;;;;4.70;4.30;;;11.40;99.90;;;;;;4995614;28;20443;-68
2021/11/03 13:36:16;;;;;;;4.37;3.97;;;11.40;99.90;;;;;;4995590;28;20608;-68
2021/11/03 13:38:53;;;;;;;3.93;3.73;;;11.40;99.90;;;;;;4995762;28;20446;-68
2021/11/03 13:41:25;;;;;;;4.40;4.00;;;11.30;99.90;;;;;;4994741;28;20486;-69
2021/11/03 13:44:17;;;;;;;5.23;4.73;;;11.30;99.90;;;;;;4994569;28;20925;-68
2021/11/03 13:46:48;;;;;;;7.53;4.87;;;11.20;99.90;;;;;;4995437;28;20446;-68
2021/11/03 13:49:17;;;;;;;5.10;4.70;;;11.10;99.90;;;;;;4996077;28;20526;-69
2021/11/03 13:51:51;;;;;;;5.73;5.30;;;11.10;99.90;;;;;;4996064;28;20474;-68
2021/11/03 13:54:27;;;;;;;4.27;4.00;;;11.00;99.90;;;;;;4995716;28;20835;-68
2021/11/03 13:56:57;;;;;;;4.50;4.10;;;11.00;99.90;;;;;;4994819;28;20444;-68
2021/11/03 13:59:30;;;;;;;23.50;20.47;;;11.00;99.90;;;;;;4994797;28;20462;-68
2021/11/03 14:02:15;;;;;;;17.40;15.60;;;11.00;99.90;;;;;;4994517;28;20490;-68
2021/11/03 14:04:44;;;;;;;7.63;6.80;;;11.00;99.90;;;;;;4994327;28;20922;-68
2021/11/03 14:07:19;;;;;;;8.33;7.17;;;10.90;99.90;;;;;;4994166;28;20942;-69
2021/11/03 14:09:47;;;;;;;7.40;6.00;;;10.90;99.90;;;;;;4994220;28;20928;-69
2021/11/03 14:12:15;;;;;;;5.70;5.20;;;10.90;99.90;;;;;;4994249;28;20479;-68
2021/11/03 14:14:42;;;;;;;7.30;6.70;;;11.00;99.90;;;;;;4994328;28;20872;-68
2021/11/03 14:17:18;;;;;;;6.67;5.97;;;11.00;99.90;;;;;;4994813;28;20497;-69
2021/11/03 14:19:50;;;;;;;5.73;5.13;;;11.00;99.90;;;;;;4995105;28;20448;-68
2021/11/03 14:22:21;;;;;;;6.40;5.90;;;11.00;99.90;;;;;;4995078;28;20482;-68
2021/11/03 14:24:48;;;;;;;6.83;5.63;;;11.00;99.90;;;;;;4994176;28;20470;-68
2021/11/03 14:27:16;;;;;;;5.37;4.97;;;11.00;99.90;;;;;;4994316;28;20525;-68
2021/11/03 14:29:43;;;;;;;6.20;5.60;;;11.00;99.90;;;;;;4993688;28;20844;-68
2021/11/03 14:32:16;;;;;;;5.80;5.30;;;11.10;99.90;;;;;;4994053;28;20479;-68
2021/11/03 14:34:45;;;;;;;5.00;4.60;;;11.10;99.90;;;;;;4993535;28;20467;-68
2021/11/03 14:37:14;;;;;;;5.93;5.43;;;11.00;99.90;;;;;;4993984;28;20497;-67
2021/11/03 14:39:47;;;;;;;6.70;6.10;;;11.00;99.90;;;;;;4994043;28;20465;-68
2021/11/03 14:42:15;;;;;;;7.63;5.30;;;11.10;99.90;;;;;;4993805;28;20478;-68
2021/11/03 14:44:42;;;;;;;5.93;5.37;;;11.00;99.90;;;;;;4994062;28;20463;-69
2021/11/03 14:47:18;;;;;;;8.80;5.57;;;11.00;99.90;;;;;;4994095;28;20461;-68
2021/11/03 14:49:48;;;;;;;5.97;5.47;;;10.90;99.90;;;;;;4993821;28;20435;-68
2021/11/03 14:52:23;;;;;;;5.93;5.37;;;10.90;99.90;;;;;;4994224;28;20486;-68
2021/11/03 14:54:50;;;;;;;6.23;5.63;;;10.90;99.90;;;;;;4994155;28;20470;-68
2021/11/03 14:57:17;;;;;;;8.43;6.27;;;10.80;99.90;;;;;;4994180;28;20463;-67
2021/11/03 14:59:44;;;;;;;6.20;5.70;;;10.70;99.90;;;;;;4994147;28;20826;-68
2021/11/03 15:02:21;;;;;;;5.60;5.20;;;10.70;99.90;;;;;;4993645;28;20998;-68
2021/11/03 15:04:49;;;;;;;6.40;5.70;;;10.70;99.90;;;;;;4994021;28;20446;-68
2021/11/03 15:07:18;;;;;;;8.97;8.20;;;10.70;99.90;;;;;;4993889;28;20937;-70
2021/11/03 15:09:46;;;;;;;6.67;6.07;;;10.70;99.90;;;;;;4994206;28;20465;-69
2021/11/03 15:12:12;;;;;;;6.40;5.90;;;10.70;99.90;;;;;;4994524;28;20475;-70
2021/11/03 15:14:41;;;;;;;6.70;6.20;;;10.70;99.90;;;;;;4994302;28;20465;-69
2021/11/03 15:17:16;;;;;;;6.67;6.10;;;10.70;99.90;;;;;;4994942;28;20517;-68
2021/11/03 15:19:57;;;;;;;7.33;6.60;;;10.60;99.90;;;;;;4994671;28;20441;-67
2021/11/03 15:22:25;;;;;;;7.57;6.20;;;10.50;99.90;;;;;;4994555;28;20841;-69
2021/11/03 15:24:53;;;;;;;7.63;7.03;;;10.40;99.90;;;;;;4994115;28;20549;-68
2021/11/03 15:27:20;;;;;;;8.00;7.30;;;10.40;99.90;;;;;;4994512;28;20473;-70
2021/11/03 15:29:47;;;;;;;8.83;7.50;;;10.30;99.90;;;;;;4994134;28;20937;-69
2021/11/03 15:32:20;;;;;;;7.43;6.73;;;10.30;99.90;;;;;;4994015;28;20469;-69
2021/11/03 15:34:49;;;;;;;9.90;7.20;;;10.20;99.90;;;;;;4994233;28;20478;-70
2021/11/03 15:37:23;;;;;;;10.10;7.23;;;10.20;99.90;;;;;;4994103;28;20461;-71
2021/11/03 15:39:51;;;;;;;7.47;6.77;;;10.20;99.90;;;;;;4993812;28;20439;-70
2021/11/03 15:42:20;;;;;;;7.20;5.13;;;10.10;99.90;;;;;;4993673;28;20474;-70
2021/11/03 15:44:48;;;;;;;5.07;4.60;;;10.00;99.90;;;;;;4994246;28;20458;-70
2021/11/03 15:47:19;;;;;;;4.63;4.00;;;10.00;99.90;;;;;;4995234;28;20454;-71
2021/11/03 15:49:48;;;;;;;4.37;4.07;;;10.00;99.90;;;;;;4997691;28;20446;-69
2021/11/03 15:52:17;;;;;;;5.17;4.67;;;9.90;99.90;;;;;;4997775;28;20479;-68
2021/11/03 15:54:48;;;;;;;3.53;3.23;;;9.90;99.90;;;;;;4997803;28;20792;-68
2021/11/03 15:57:15;;;;;;;3.97;3.67;;;9.90;99.90;;;;;;4998632;28;20435;-67
2021/11/03 15:59:42;;;;;;;5.30;4.80;;;9.90;99.90;;;;;;4997636;28;20454;-70
2021/11/03 16:02:19;;;;;;;6.27;4.73;;;9.90;99.90;;;;;;4996843;28;20478;-68
2021/11/03 16:04:49;;;;;;;6.87;6.27;;;9.90;99.90;;;;;;4997031;28;20441;-69
2021/11/03 16:07:18;;;;;;;6.30;5.70;;;10.00;99.90;;;;;;4997994;28;20791;-69
2021/11/03 16:09:46;;;;;;;6.40;5.90;;;10.00;99.90;;;;;;4997111;28;20457;-70
2021/11/03 16:12:13;;;;;;;6.23;5.73;;;9.90;99.90;;;;;;4996928;28;20463;-69
2021/11/03 16:14:42;;;;;;;7.33;6.30;;;9.90;99.90;;;;;;4996562;28;20941;-69
2021/11/03 16:17:16;;;;;;;5.37;4.97;;;9.90;99.90;;;;;;4996884;28;21001;-69
2021/11/03 16:19:44;;;;;;;4.37;4.07;;;9.90;99.90;;;;;;4997190;28;20449;-69
2021/11/03 16:22:20;;;;;;;3.70;3.40;;;9.90;99.90;;;;;;4997007;28;20473;-68
2021/11/03 16:24:48;;;;;;;3.50;3.20;;;9.80;99.90;;;;;;4996618;28;20437;-68
2021/11/03 16:27:16;;;;;;;3.00;2.80;;;9.80;99.90;;;;;;4996761;28;20451;-68
2021/11/03 16:29:43;;;;;;;2.60;2.50;;;9.80;99.90;;;;;;4996476;28;20457;-68
2021/11/03 16:32:10;;;;;;;2.47;1.97;;;9.80;99.90;;;;;;4997144;28;20793;-68
2021/11/03 16:34:37;;;;;;;1.63;1.53;;;9.70;99.90;;;;;;4995964;28;20946;-67
2021/11/03 16:37:04;;;;;;;2.90;2.70;;;9.70;99.90;;;;;;4996058;28;20487;-67
2021/11/03 16:39:33;;;;;;;3.13;2.93;;;9.80;99.90;;;;;;4996480;28;20497;-68
2021/11/03 16:42:26;;;;;;;3.67;3.43;;;9.90;99.90;;;;;;4996792;28;20536;-68
2021/11/03 16:44:57;;;;;;;3.33;3.13;;;9.90;99.90;;;;;;4996455;28;20442;-67
2021/11/03 16:47:29;;;;;;;5.90;2.67;;;9.90;99.90;;;;;;4996368;28;20903;-67
2021/11/03 16:49:56;;;;;;;4.40;3.03;;;10.00;99.90;;;;;;4995992;28;20533;-68
2021/11/03 16:52:23;;;;;;;6.40;3.07;;;10.00;99.90;;;;;;4995858;28;20485;-67
2021/11/03 16:54:51;;;;;;;3.47;3.17;;;10.00;99.90;;;;;;4996301;28;20461;-68
2021/11/03 16:57:19;;;;;;;3.70;3.40;;;10.00;99.90;;;;;;4995673;28;21019;-69
2021/11/03 16:59:46;;;;;;;3.20;3.00;;;10.00;99.90;;;;;;4996463;28;20455;-69
2021/11/03 17:02:13;;;;;;;5.10;3.90;;;10.00;99.90;;;;;;4995694;28;20992;-69
2021/11/03 17:04:41;;;;;;;3.90;3.60;;;10.00;99.90;;;;;;4996211;28;20462;-69
2021/11/03 17:07:07;;;;;;;2.50;2.30;;;9.90;99.90;;;;;;4996507;28;20451;-69
2021/11/03 17:09:37;;;;;;;2.40;2.30;;;9.90;99.90;;;;;;4996114;28;20455;-69
2021/11/03 17:12:10;;;;;;;2.20;2.10;;;9.90;99.90;;;;;;4995788;28;20533;-70
2021/11/03 17:14:38;;;;;;;2.10;2.00;;;9.90;99.90;;;;;;4996762;28;20525;-70
2021/11/03 17:17:05;;;;;;;2.80;2.60;;;9.90;99.90;;;;;;4996157;28;20479;-69
2021/11/03 17:19:32;;;;;;;2.90;2.40;;;9.80;99.90;;;;;;4996325;28;20458;-68
2021/11/03 17:22:02;;;;;;;8.33;1.87;;;9.80;99.90;;;;;;4996179;28;20485;-70
2021/11/03 17:24:32;;;;;;;1.83;1.73;;;9.80;99.90;;;;;;4998397;28;20518;-70
2021/11/03 17:27:02;;;;;;;1.77;1.67;;;9.80;99.90;;;;;;4995974;28;20962;-69
2021/11/03 17:29:33;;;;;;;2.57;1.70;;;9.80;99.90;;;;;;4995788;28;20443;-70
2021/11/03 17:32:04;;;;;;;2.60;2.43;;;9.80;99.90;;;;;;4995968;28;20478;-69
2021/11/03 17:34:32;;;;;;;1.87;1.67;;;9.80;99.90;;;;;;4996212;28;20449;-69
2021/11/03 17:36:59;;;;;;;7.83;2.60;;;9.80;99.90;;;;;;4996182;28;20478;-69
2021/11/03 17:39:26;;;;;;;5.27;1.90;;;9.70;99.90;;;;;;4995363;28;20795;-68
2021/11/03 17:41:55;;;;;;;2.80;2.57;;;9.80;99.90;;;;;;4995366;28;20529;-68
2021/11/03 17:44:24;;;;;;;3.60;3.27;;;9.80;99.90;;;;;;4995320;28;20458;-69
2021/11/03 17:46:55;;;;;;;2.00;1.90;;;9.80;99.90;;;;;;4995365;28;20451;-69
2021/11/03 17:49:26;;;;;;;2.70;2.60;;;9.90;99.90;;;;;;4995314;28;20446;-71
2021/11/03 17:51:53;;;;;;;8.20;7.70;;;10.00;99.90;;;;;;4995360;28;20483;-73
2021/11/03 17:54:21;;;;;;;4.20;3.97;;;10.00;99.90;;;;;;4995126;28;20461;-74
2021/11/03 17:56:48;;;;;;;4.90;4.60;;;10.00;99.90;;;;;;4994735;28;20487;-74
2021/11/03 17:59:19;;;;;;;5.03;2.00;;;10.10;99.90;;;;;;4994788;28;20966;-72
2021/11/03 18:01:51;;;;;;;1.90;1.90;;;10.10;99.90;;;;;;4994577;28;20483;-72
2021/11/03 18:04:20;;;;;;;2.20;2.10;;;10.10;99.90;;;;;;4994789;28;20447;-72
2021/11/03 18:06:48;;;;;;;2.93;2.73;;;10.10;99.90;;;;;;4995611;28;20509;-72
2021/11/03 18:09:15;;;;;;;3.30;3.10;;;10.10;99.90;;;;;;4993852;28;20941;-72
2021/11/03 18:11:43;;;;;;;3.53;2.63;;;10.10;99.90;;;;;;4994628;28;20474;-72